createdAt,value
2018-05-25T00:00:28.512Z,99.99
2018-05-25T00:01:28.505Z,99.99
2018-05-25T00:02:28.500Z,99.99
2018-05-25T00:03:28.497Z,99.99
2018-05-25T00:04:28.775Z,99.99
2018-05-25T00:05:28.499Z,99.99
2018-05-25T00:06:28.765Z,99.99
2018-05-25T00:07:28.757Z,99.99
2018-05-25T00:08:28.491Z,99.99
2018-05-25T00:09:28.760Z,99.99
2018-05-25T00:10:28.766Z,99.99
2018-05-25T00:11:28.768Z,99.99
2018-05-25T00:12:28.763Z,99.99
2018-05-25T00:13:28.798Z,99.99
2018-05-25T00:14:28.766Z,99.99
2018-05-25T00:15:28.772Z,99.99
2018-05-25T00:16:28.774Z,99.99
2018-05-25T00:17:28.490Z,99.99
2018-05-25T00:18:28.512Z,99.99
2018-05-25T00:19:28.759Z,99.99
2018-05-25T00:20:28.493Z,99.99
2018-05-25T00:21:28.764Z,99.99
2018-05-25T00:22:28.745Z,99.99
2018-05-25T00:23:28.489Z,99.99
2018-05-25T00:24:28.486Z,99.99
2018-05-25T00:25:28.770Z,99.99
2018-05-25T00:26:28.752Z,99.99
2018-05-25T00:27:28.485Z,99.99
2018-05-25T00:28:28.744Z,99.99
2018-05-25T00:29:28.485Z,99.99
2018-05-25T00:30:28.479Z,99.99
2018-05-25T00:31:28.488Z,99.99
2018-05-25T00:32:28.745Z,99.99
2018-05-25T00:33:28.741Z,99.99
2018-05-25T00:34:28.745Z,99.99
2018-05-25T00:35:28.743Z,99.99
2018-05-25T00:36:28.743Z,99.99
2018-05-25T00:37:28.474Z,99.99
2018-05-25T00:38:28.479Z,99.99
2018-05-25T00:39:28.474Z,99.99
2018-05-25T00:40:28.743Z,99.99
2018-05-25T00:41:28.739Z,99.99
2018-05-25T00:42:28.733Z,99.99
2018-05-25T00:43:28.736Z,99.99
2018-05-25T00:44:28.471Z,99.99
2018-05-25T00:45:28.476Z,99.99
2018-05-25T00:46:28.733Z,99.99
2018-05-25T00:47:28.758Z,99.99
2018-05-25T00:48:28.732Z,99.99
2018-05-25T00:49:28.736Z,99.99
2018-05-25T00:50:28.811Z,99.99
2018-05-25T00:51:28.737Z,99.99
2018-05-25T00:52:28.736Z,99.99
2018-05-25T00:53:28.728Z,99.99
2018-05-25T00:54:28.476Z,99.99
2018-05-25T00:55:28.729Z,99.99
2018-05-25T00:56:28.467Z,99.99
2018-05-25T00:57:28.738Z,99.99
2018-05-25T00:58:28.846Z,99.99
2018-05-25T00:59:28.534Z,99.99
2018-05-25T01:00:28.462Z,99.99
2018-05-25T01:01:28.729Z,99.99
2018-05-25T01:02:28.725Z,99.99
2018-05-25T01:03:28.461Z,99.99
2018-05-25T01:04:28.715Z,99.99
2018-05-25T01:05:28.718Z,99.99
2018-05-25T01:06:28.458Z,99.99
2018-05-25T01:07:28.729Z,99.99
2018-05-25T01:08:28.717Z,99.99
2018-05-25T01:09:28.717Z,99.99
2018-05-25T01:10:28.717Z,99.99
2018-05-25T01:11:28.457Z,99.99
2018-05-25T01:12:28.469Z,99.99
2018-05-25T01:13:28.719Z,99.99
2018-05-25T01:14:28.731Z,99.99
2018-05-25T01:15:28.464Z,99.99
2018-05-25T01:16:28.742Z,99.99
2018-05-25T01:17:28.457Z,99.99
2018-05-25T01:18:28.720Z,99.99
2018-05-25T01:19:28.728Z,99.99
2018-05-25T01:20:28.709Z,99.99
2018-05-25T01:21:28.723Z,99.99
2018-05-25T01:22:28.708Z,99.99
2018-05-25T01:23:29.249Z,99.99
2018-05-25T01:24:28.445Z,99.99
2018-05-25T01:25:28.449Z,99.99
2018-05-25T01:26:28.703Z,99.99
2018-05-25T01:27:28.710Z,99.99
2018-05-25T01:28:28.704Z,99.99
2018-05-25T01:29:28.478Z,99.99
2018-05-25T01:30:28.708Z,99.99
2018-05-25T01:31:28.443Z,99.99
2018-05-25T01:32:28.698Z,99.99
2018-05-25T01:33:28.439Z,99.99
2018-05-25T01:34:28.438Z,99.99
2018-05-25T01:35:28.696Z,99.99
2018-05-25T01:36:28.697Z,99.99
2018-05-25T01:37:28.451Z,99.99
2018-05-25T01:38:28.436Z,99.99
2018-05-25T01:39:28.432Z,99.99
2018-05-25T01:40:28.687Z,99.99
2018-05-25T01:41:28.433Z,99.99
2018-05-25T01:42:28.452Z,99.99
2018-05-25T01:43:28.704Z,99.99
2018-05-25T01:44:28.424Z,99.99
2018-05-25T01:45:28.722Z,99.99
2018-05-25T01:46:28.433Z,99.99
2018-05-25T01:47:28.682Z,99.99
2018-05-25T01:48:28.700Z,99.99
2018-05-25T01:49:28.423Z,99.99
2018-05-25T01:50:28.682Z,99.99
2018-05-25T01:51:28.421Z,99.99
2018-05-25T01:52:28.684Z,99.99
2018-05-25T01:53:28.677Z,99.99
2018-05-25T01:54:28.416Z,99.99
2018-05-25T01:55:28.676Z,99.99
2018-05-25T01:56:28.416Z,99.99
2018-05-25T01:57:28.688Z,99.99
2018-05-25T01:58:28.676Z,99.99
2018-05-25T01:59:28.417Z,99.99
2018-05-25T02:00:28.680Z,99.99
2018-05-25T02:01:28.673Z,99.99
2018-05-25T02:02:28.675Z,99.99
2018-05-25T02:03:28.673Z,99.99
2018-05-25T02:04:28.686Z,99.99
2018-05-25T02:05:28.673Z,99.99
2018-05-25T02:06:28.408Z,99.99
2018-05-25T02:07:28.410Z,99.99
2018-05-25T02:08:28.405Z,99.99
2018-05-25T02:09:28.694Z,99.99
2018-05-25T02:10:28.667Z,99.99
2018-05-25T02:11:28.403Z,99.99
2018-05-25T02:12:28.399Z,99.99
2018-05-25T02:13:28.400Z,99.99
2018-05-25T02:14:28.653Z,99.99
2018-05-25T02:15:28.398Z,99.99
2018-05-25T02:16:28.651Z,99.99
2018-05-25T02:17:28.652Z,99.99
2018-05-25T02:18:28.658Z,99.99
2018-05-25T02:19:28.708Z,99.99
2018-05-25T02:20:28.653Z,99.99
2018-05-25T02:21:28.648Z,99.99
2018-05-25T02:22:28.388Z,99.99
2018-05-25T02:23:28.380Z,99.99
2018-05-25T02:24:28.643Z,99.99
2018-05-25T02:25:28.386Z,99.99
2018-05-25T02:26:28.643Z,99.99
2018-05-25T02:27:28.425Z,99.99
2018-05-25T02:28:28.377Z,99.99
2018-05-25T02:29:28.376Z,99.99
2018-05-25T02:30:28.640Z,99.99
2018-05-25T02:31:28.643Z,99.99
2018-05-25T02:32:28.375Z,99.99
2018-05-25T02:33:28.633Z,99.99
2018-05-25T02:34:28.637Z,99.99
2018-05-25T02:35:28.658Z,99.99
2018-05-25T02:36:28.630Z,99.99
2018-05-25T02:37:28.645Z,99.99
2018-05-25T02:38:28.641Z,99.99
2018-05-25T02:39:28.380Z,99.99
2018-05-25T02:40:28.366Z,99.99
2018-05-25T02:41:28.370Z,99.99
2018-05-25T02:42:28.627Z,99.99
2018-05-25T02:43:28.644Z,99.99
2018-05-25T02:44:28.355Z,99.99
2018-05-25T02:45:28.353Z,99.99
2018-05-25T02:46:28.612Z,99.99
2018-05-25T02:47:28.615Z,99.99
2018-05-25T02:48:28.619Z,99.99
2018-05-25T02:49:28.614Z,99.99
2018-05-25T02:50:28.610Z,99.99
2018-05-25T02:51:28.350Z,99.99
2018-05-25T02:52:28.606Z,99.99
2018-05-25T02:53:28.611Z,99.99
2018-05-25T02:54:28.617Z,99.99
2018-05-25T02:55:28.602Z,99.99
2018-05-25T02:56:28.597Z,99.99
2018-05-25T02:57:28.595Z,99.99
2018-05-25T02:58:28.600Z,99.99
2018-05-25T02:59:28.599Z,99.99
2018-05-25T03:00:28.594Z,99.99
2018-05-25T03:01:28.593Z,99.99
2018-05-25T03:02:28.602Z,99.99
2018-05-25T03:03:28.328Z,99.99
2018-05-25T03:04:28.590Z,99.99
2018-05-25T03:05:28.591Z,99.99
2018-05-25T03:06:28.586Z,99.99
2018-05-25T03:07:28.321Z,99.99
2018-05-25T03:08:28.319Z,99.99
2018-05-25T03:09:28.319Z,99.99
2018-05-25T03:10:28.577Z,99.99
2018-05-25T03:11:28.322Z,99.99
2018-05-25T03:12:28.584Z,99.99
2018-05-25T03:13:28.324Z,99.99
2018-05-25T03:14:28.325Z,99.99
2018-05-25T03:15:28.615Z,99.99
2018-05-25T03:16:28.352Z,99.99
2018-05-25T03:17:28.311Z,99.99
2018-05-25T03:18:28.580Z,99.99
2018-05-25T03:19:28.302Z,99.99
2018-05-25T03:20:28.300Z,99.99
2018-05-25T03:21:28.586Z,99.99
2018-05-25T03:22:28.558Z,99.99
2018-05-25T03:23:28.299Z,99.99
2018-05-25T03:24:28.565Z,99.99
2018-05-25T03:25:28.316Z,99.99
2018-05-25T03:26:28.560Z,99.99
2018-05-25T03:27:28.290Z,99.99
2018-05-25T03:28:28.295Z,99.99
2018-05-25T03:29:28.289Z,99.99
2018-05-25T03:30:28.293Z,99.99
2018-05-25T03:31:28.552Z,99.99
2018-05-25T03:32:28.547Z,99.99
2018-05-25T03:33:28.539Z,99.99
2018-05-25T03:34:28.275Z,99.99
2018-05-25T03:35:28.274Z,99.99
2018-05-25T03:36:28.289Z,99.99
2018-05-25T03:37:28.529Z,99.99
2018-05-25T03:38:28.279Z,99.99
2018-05-25T03:39:28.271Z,99.99
2018-05-25T03:40:28.271Z,99.99
2018-05-25T03:41:28.541Z,99.99
2018-05-25T03:42:28.521Z,99.99
2018-05-25T03:43:28.521Z,99.99
2018-05-25T03:44:28.526Z,99.99
2018-05-25T03:45:28.535Z,99.99
2018-05-25T03:46:28.513Z,99.99
2018-05-25T03:47:28.272Z,99.99
2018-05-25T03:48:28.518Z,99.99
2018-05-25T03:49:28.535Z,99.99
2018-05-25T03:50:28.528Z,99.99
2018-05-25T03:51:28.251Z,99.99
2018-05-25T03:52:28.255Z,99.99
2018-05-25T03:53:28.244Z,99.99
2018-05-25T03:54:29.307Z,99.99
2018-05-25T03:55:28.501Z,99.99
2018-05-25T03:56:28.506Z,99.99
2018-05-25T03:57:28.502Z,99.99
2018-05-25T03:58:28.256Z,99.99
2018-05-25T03:59:28.238Z,99.99
2018-05-25T04:00:28.492Z,99.99
2018-05-25T04:01:28.497Z,99.99
2018-05-25T04:02:28.496Z,99.99
2018-05-25T04:03:28.228Z,99.99
2018-05-25T04:04:28.489Z,99.99
2018-05-25T04:05:28.489Z,99.99
2018-05-25T04:06:28.619Z,99.99
2018-05-25T04:07:28.486Z,99.99
2018-05-25T04:08:28.230Z,99.99
2018-05-25T04:09:28.227Z,99.99
2018-05-25T04:10:28.479Z,99.99
2018-05-25T04:11:28.486Z,99.99
2018-05-25T04:12:28.229Z,99.99
2018-05-25T04:13:28.485Z,99.99
2018-05-25T04:14:28.684Z,99.99
2018-05-25T04:15:28.227Z,99.99
2018-05-25T04:16:28.484Z,99.99
2018-05-25T04:17:28.225Z,99.99
2018-05-25T04:18:28.479Z,99.99
2018-05-25T04:19:28.227Z,99.99
2018-05-25T04:20:28.279Z,99.99
2018-05-25T04:21:28.493Z,99.99
2018-05-25T04:22:28.223Z,99.99
2018-05-25T04:23:28.483Z,99.99
2018-05-25T04:24:28.232Z,99.99
2018-05-25T04:25:28.486Z,99.99
2018-05-25T04:26:28.480Z,99.99
2018-05-25T04:27:28.514Z,99.99
2018-05-25T04:28:28.483Z,99.99
2018-05-25T04:29:28.242Z,99.87
2018-05-25T04:30:28.487Z,98.33
2018-05-25T04:31:28.494Z,96.99
2018-05-25T04:32:28.488Z,96.66
2018-05-25T04:33:28.497Z,95.79
2018-05-25T04:34:28.500Z,94.93
2018-05-25T04:35:28.251Z,94.93
2018-05-25T04:36:28.505Z,93.49
2018-05-25T04:37:28.243Z,93.34
2018-05-25T04:38:28.557Z,92.38
2018-05-25T04:39:28.514Z,92
2018-05-25T04:40:28.255Z,90.56
2018-05-25T04:41:28.527Z,90.94
2018-05-25T04:42:28.520Z,91.71
2018-05-25T04:43:28.253Z,91.61
2018-05-25T04:44:28.264Z,91.61
2018-05-25T04:45:28.524Z,92.05
2018-05-25T04:46:28.525Z,92.82
2018-05-25T04:47:28.268Z,93.68
2018-05-25T04:48:28.268Z,95.26
2018-05-25T04:49:28.301Z,95.46
2018-05-25T04:50:28.540Z,96.89
2018-05-25T04:51:28.278Z,97.52
2018-05-25T04:52:28.318Z,99.05
2018-05-25T04:53:28.539Z,99.99
2018-05-25T04:54:28.299Z,99.99
2018-05-25T04:55:28.557Z,99.99
2018-05-25T04:56:28.554Z,99.99
2018-05-25T04:57:28.553Z,99.99
2018-05-25T04:58:28.558Z,99.99
2018-05-25T04:59:28.302Z,99.99
2018-05-25T05:00:28.302Z,99.99
2018-05-25T05:01:28.305Z,98.72
2018-05-25T05:02:28.558Z,97.38
2018-05-25T05:03:28.576Z,94.74
2018-05-25T05:04:28.568Z,93.68
2018-05-25T05:05:28.575Z,92.24
2018-05-25T05:06:28.303Z,91.42
2018-05-25T05:07:28.574Z,91.57
2018-05-25T05:08:28.327Z,90.66
2018-05-25T05:09:28.574Z,90.66
2018-05-25T05:10:28.319Z,90.94
2018-05-25T05:11:28.591Z,91.57
2018-05-25T05:12:28.579Z,92.14
2018-05-25T05:13:28.321Z,92.82
2018-05-25T05:14:28.886Z,94.35
2018-05-25T05:15:28.588Z,95.36
2018-05-25T05:16:28.590Z,96.99
2018-05-25T05:17:28.348Z,96.89
2018-05-25T05:18:28.590Z,97.38
2018-05-25T05:19:28.596Z,98.53
2018-05-25T05:20:28.339Z,98.62
2018-05-25T05:21:28.596Z,98.86
2018-05-25T05:22:28.338Z,99.44
2018-05-25T05:23:28.341Z,99.44
2018-05-25T05:24:28.604Z,99.53
2018-05-25T05:25:28.348Z,99.99
2018-05-25T05:26:28.661Z,99.99
2018-05-25T05:27:28.626Z,99.99
2018-05-25T05:28:28.640Z,99.99
2018-05-25T05:29:28.607Z,99.99
2018-05-25T05:30:28.615Z,99.99
2018-05-25T05:31:28.355Z,99.99
2018-05-25T05:32:28.619Z,99.99
2018-05-25T05:33:28.614Z,99.99
2018-05-25T05:34:28.357Z,99.99
2018-05-25T05:35:28.625Z,99.99
2018-05-25T05:36:28.645Z,99.99
2018-05-25T05:37:28.627Z,99.99
2018-05-25T05:38:28.361Z,99.99
2018-05-25T05:39:28.362Z,99.99
2018-05-25T05:40:28.629Z,99.99
2018-05-25T05:41:28.621Z,99.99
2018-05-25T05:42:28.370Z,99.99
2018-05-25T05:43:28.361Z,99.99
2018-05-25T05:44:28.803Z,99.99
2018-05-25T05:45:28.630Z,99.99
2018-05-25T05:46:28.379Z,99.99
2018-05-25T05:47:28.629Z,99.99
2018-05-25T05:48:28.636Z,99.99
2018-05-25T05:49:28.370Z,99.99
2018-05-25T05:50:28.397Z,99.99
2018-05-25T05:51:28.650Z,99.99
2018-05-25T05:52:28.643Z,99.58
2018-05-25T05:53:28.646Z,98.62
2018-05-25T05:54:28.634Z,97.66
2018-05-25T05:55:28.645Z,97.42
2018-05-25T05:56:28.639Z,96.27
2018-05-25T05:57:28.646Z,94.93
2018-05-25T05:58:28.649Z,93.73
2018-05-25T05:59:28.647Z,90.89
2018-05-25T06:00:28.670Z,88.63
2018-05-25T06:01:28.654Z,85.69
2018-05-25T06:02:28.388Z,84.25
2018-05-25T06:03:28.387Z,81.4
2018-05-25T06:04:28.741Z,79.13
2018-05-25T06:05:28.651Z,77.44
2018-05-25T06:06:28.663Z,75.45
2018-05-25T06:07:28.658Z,74.14
2018-05-25T06:08:28.665Z,72.54
2018-05-25T06:09:28.404Z,70.84
2018-05-25T06:10:28.674Z,69.52
2018-05-25T06:11:28.681Z,67.72
2018-05-25T06:12:28.808Z,65.72
2018-05-25T06:13:28.693Z,64.95
2018-05-25T06:24:20.746Z,60.21
2018-05-25T06:25:20.824Z,60.04
2018-05-25T06:26:20.766Z,58.91
2018-05-25T06:27:20.490Z,58.04
2018-05-25T06:28:20.530Z,57.09
2018-05-25T06:29:20.508Z,56.51
2018-05-25T06:30:20.514Z,55.28
2018-05-25T06:31:20.771Z,55.38
2018-05-25T06:32:20.791Z,54.82
2018-05-25T06:33:20.791Z,54.92
2018-05-25T06:34:20.794Z,53.75
2018-05-25T06:35:20.560Z,53.66
2018-05-25T06:36:20.804Z,53.69
2018-05-25T06:37:20.544Z,52.91
2018-05-25T06:38:20.817Z,53.78
2018-05-25T06:39:20.837Z,54.05
2018-05-25T06:40:20.831Z,53.97
2018-05-25T06:41:20.577Z,53.85
2018-05-25T06:42:20.857Z,53.37
2018-05-25T06:43:20.851Z,52.52
2018-05-25T06:44:20.959Z,52.62
2018-05-25T06:45:20.911Z,52.62
2018-05-25T06:46:20.869Z,52.52
2018-05-25T06:47:20.620Z,53.3
2018-05-25T06:48:20.635Z,52.81
2018-05-25T06:49:20.892Z,53
2018-05-25T06:50:20.906Z,53.49
2018-05-25T06:51:20.649Z,52.35
2018-05-25T06:52:20.926Z,52.64
2018-05-25T06:53:20.924Z,52.15
2018-05-25T06:54:20.670Z,51.97
2018-05-25T06:55:20.934Z,51.48
2018-05-25T06:56:20.944Z,51.31
2018-05-25T06:57:20.962Z,51.21
2018-05-25T06:58:20.966Z,51.5
2018-05-25T06:59:20.997Z,50.82
2018-05-25T07:00:20.722Z,51.31
2018-05-25T07:01:20.989Z,51.7
2018-05-25T07:02:20.994Z,50.65
2018-05-25T07:03:20.741Z,50.75
2018-05-25T07:04:21.004Z,50.56
2018-05-25T07:05:21.010Z,50.92
2018-05-25T07:06:21.021Z,51.99
2018-05-25T07:07:20.781Z,51.79
2018-05-25T07:08:21.055Z,51.11
2018-05-25T07:09:20.792Z,51.14
2018-05-25T07:10:21.064Z,51.33
2018-05-25T07:11:21.061Z,50.85
2018-05-25T07:12:20.818Z,50.46
2018-05-25T07:13:20.825Z,50.09
2018-05-25T07:14:21.103Z,49.32
2018-05-25T07:15:20.831Z,48.46
2018-05-25T07:16:21.111Z,48.75
2018-05-25T07:17:20.859Z,48.95
2018-05-25T07:18:21.133Z,48.75
2018-05-25T07:19:21.135Z,48.85
2018-05-25T07:20:20.873Z,48.54
2018-05-25T07:21:21.180Z,48.54
2018-05-25T07:22:20.887Z,48.56
2018-05-25T07:23:21.162Z,47.32
2018-05-25T07:24:20.917Z,46.83
2018-05-25T07:25:20.913Z,47.05
2018-05-25T07:26:21.182Z,47.53
2018-05-25T07:27:21.200Z,48.51
2018-05-25T07:28:21.201Z,47.52
2018-05-25T07:29:20.966Z,47.53
2018-05-25T07:30:20.969Z,47.83
2018-05-25T07:31:20.965Z,47.44
2018-05-25T07:32:21.241Z,46.59
2018-05-25T07:33:21.358Z,45.03
2018-05-25T07:34:21.258Z,44.85
2018-05-25T07:35:20.994Z,46.56
2018-05-25T07:36:21.268Z,48.68
2018-05-25T07:37:21.285Z,51.04
2018-05-25T07:38:21.315Z,53.03
2018-05-25T07:39:21.418Z,53
2018-05-25T07:40:21.298Z,51.38
2018-05-25T07:41:21.314Z,50.73
2018-05-25T07:42:21.323Z,49.95
2018-05-25T07:43:21.331Z,50.75
2018-05-25T07:44:21.069Z,49.97
2018-05-25T07:45:21.341Z,49.49
2018-05-25T07:46:21.408Z,49.29
2018-05-25T07:47:21.108Z,48.93
2018-05-25T07:48:21.104Z,49.22
2018-05-25T07:49:21.123Z,48.44
2018-05-25T07:50:21.384Z,47.98
2018-05-25T07:51:21.391Z,47.03
2018-05-25T07:52:21.411Z,45.78
2018-05-25T07:53:21.421Z,44.73
2018-05-25T07:54:21.511Z,42.73
2018-05-25T07:55:21.171Z,43.53
2018-05-25T07:56:21.438Z,41.97
2018-05-25T07:57:21.454Z,41.21
2018-05-25T07:58:21.452Z,40.72
2018-05-25T07:59:21.201Z,41.5
2018-05-25T08:00:21.571Z,43.04
2018-05-25T08:01:21.217Z,42.83
2018-05-25T08:02:21.497Z,42.34
2018-05-25T08:03:21.237Z,42.8
2018-05-25T08:04:21.507Z,43.29
2018-05-25T08:05:21.515Z,44.34
2018-05-25T08:06:21.578Z,44.9
2018-05-25T08:07:21.531Z,44.83
2018-05-25T08:08:21.553Z,43.27
2018-05-25T08:09:21.541Z,42.9
2018-05-25T08:10:21.299Z,42.05
2018-05-25T08:11:21.314Z,41.85
2018-05-25T08:12:21.309Z,42.26
2018-05-25T08:13:21.576Z,41.95
2018-05-25T08:14:21.325Z,42.55
2018-05-25T08:15:21.350Z,42.83
2018-05-25T08:16:21.601Z,42.83
2018-05-25T08:17:21.619Z,41.28
2018-05-25T08:18:21.625Z,40.72
2018-05-25T08:19:21.377Z,40.17
2018-05-25T08:20:21.391Z,39.69
2018-05-25T08:21:21.397Z,38.63
2018-05-25T08:22:21.662Z,38.75
2018-05-25T08:23:21.666Z,38.84
2018-05-25T08:24:21.679Z,40.39
2018-05-25T08:25:21.688Z,39.98
2018-05-25T08:26:21.694Z,41.05
2018-05-25T08:27:21.717Z,40.84
2018-05-25T08:28:21.466Z,40.55
2018-05-25T08:29:21.721Z,40.74
2018-05-25T08:30:21.581Z,41.8
2018-05-25T08:31:21.767Z,42.93
2018-05-25T08:32:21.766Z,44.07
2018-05-25T08:33:21.769Z,45.12
2018-05-25T08:34:21.526Z,45.68
2018-05-25T08:35:21.525Z,43.95
2018-05-25T08:36:21.805Z,44.37
2018-05-25T08:37:21.557Z,45.71
2018-05-25T08:38:21.811Z,45.32
2018-05-25T08:39:21.816Z,43.98
2018-05-25T08:40:21.819Z,42.93
2018-05-25T08:41:21.834Z,43.41
2018-05-25T08:42:21.842Z,44.76
2018-05-25T08:43:22.003Z,45.88
2018-05-25T08:44:21.858Z,47.3
2018-05-25T08:45:21.883Z,46.23
2018-05-25T08:46:21.883Z,46.34
2018-05-25T08:47:21.903Z,46.73
2018-05-25T08:48:21.896Z,47.52
2018-05-25T08:49:21.647Z,47.42
2018-05-25T08:50:21.657Z,47.52
2018-05-25T08:51:21.922Z,47.42
2018-05-25T08:52:21.955Z,47
2018-05-25T08:53:21.941Z,48.95
2018-05-25T08:54:21.945Z,49.02
2018-05-25T08:55:21.695Z,49.87
2018-05-25T08:56:21.705Z,50.95
2018-05-25T08:57:21.721Z,50.73
2018-05-25T08:58:21.723Z,51.5
2018-05-25T08:59:21.720Z,52.72
2018-05-25T09:00:21.744Z,53.66
2018-05-25T09:01:22.057Z,53.66
2018-05-25T09:02:22.015Z,54.9
2018-05-25T09:03:22.171Z,55.54
2018-05-25T09:04:22.025Z,56.23
2018-05-25T09:05:22.031Z,57.17
2018-05-25T09:06:21.792Z,57.58
2018-05-25T09:07:21.797Z,57.39
2018-05-25T09:08:22.066Z,56.81
2018-05-25T09:09:21.790Z,56.51
2018-05-25T09:10:22.072Z,57.17
2018-05-25T09:11:22.075Z,57.45
2018-05-25T09:12:21.868Z,58.2
2018-05-25T09:13:21.826Z,58.49
2018-05-25T09:14:22.090Z,59.27
2018-05-25T09:15:22.096Z,58.69
2018-05-25T09:16:22.097Z,57.17
2018-05-25T09:17:22.110Z,56.59
2018-05-25T09:18:21.853Z,57.07
2018-05-25T09:19:22.918Z,57.65
2018-05-25T09:20:22.134Z,58.23
2018-05-25T09:21:22.158Z,57.65
2018-05-25T09:22:21.877Z,56.03
2018-05-25T09:23:21.878Z,54.86
2018-05-25T09:24:21.887Z,55.06
2018-05-25T09:25:22.153Z,55.26
2018-05-25T09:26:22.152Z,57.45
2018-05-25T09:27:22.158Z,57.94
2018-05-25T09:28:22.170Z,57.65
2018-05-25T09:29:22.173Z,56.97
2018-05-25T09:30:21.921Z,57.19
2018-05-25T09:31:22.195Z,57.09
2018-05-25T09:32:21.930Z,56.51
2018-05-25T09:33:22.192Z,56.61
2018-05-25T09:34:21.942Z,57.36
2018-05-25T09:35:22.244Z,57.65
2018-05-25T09:36:22.310Z,57.84
2018-05-25T09:37:21.959Z,58.42
2018-05-25T09:38:22.236Z,58.33
2018-05-25T09:39:21.974Z,59.49
2018-05-25T09:40:21.973Z,57.75
2018-05-25T09:41:22.244Z,59
2018-05-25T09:42:21.985Z,57.65
2018-05-25T09:43:22.335Z,57.84
2018-05-25T09:44:22.308Z,58.52
2018-05-25T09:45:22.258Z,58.14
2018-05-25T09:46:22.299Z,59.2
2018-05-25T09:47:22.027Z,59.69
2018-05-25T09:48:22.293Z,59.56
2018-05-25T09:49:22.278Z,59.46
2018-05-25T09:50:22.283Z,59.07
2018-05-25T09:51:22.057Z,59.36
2018-05-25T09:52:22.040Z,59.27
2018-05-25T09:53:22.044Z,59.17
2018-05-25T09:54:22.314Z,59.56
2018-05-25T09:55:22.317Z,59.56
2018-05-25T09:56:22.321Z,60.04
2018-05-25T09:57:22.319Z,59.84
2018-05-25T09:58:22.342Z,59.27
2018-05-25T09:59:22.323Z,59.75
2018-05-25T10:00:22.074Z,59.17
2018-05-25T10:01:22.084Z,57.75
2018-05-25T10:02:22.090Z,57.45
2018-05-25T10:03:22.367Z,56.77
2018-05-25T10:04:22.387Z,57.17
2018-05-25T10:05:22.368Z,57.55
2018-05-25T10:06:22.371Z,57.07
2018-05-25T10:07:22.378Z,57.07
2018-05-25T10:08:22.121Z,56.97
2018-05-25T10:09:22.404Z,57.65
2018-05-25T10:10:22.149Z,57.94
2018-05-25T10:11:22.395Z,58.14
2018-05-25T10:12:22.148Z,58.04
2018-05-25T10:13:22.409Z,57.39
2018-05-25T10:14:22.460Z,56.03
2018-05-25T10:15:22.412Z,56.51
2018-05-25T10:16:22.435Z,57.75
2018-05-25T10:17:22.172Z,58.23
2018-05-25T10:18:22.439Z,58.42
2018-05-25T10:19:22.183Z,58.42
2018-05-25T10:20:22.183Z,57.58
2018-05-25T10:21:22.470Z,57.19
2018-05-25T10:22:22.451Z,57.58
2018-05-25T10:53:43.264Z,53.44
2018-05-25T10:54:43.547Z,51.96
2018-05-25T10:55:43.263Z,50.99
2018-05-25T10:56:43.264Z,51.28
2018-05-25T10:57:43.277Z,51.57
2018-05-25T10:58:43.270Z,50.82
2018-05-25T10:59:43.272Z,50.72
2018-05-25T11:00:43.277Z,49.95
2018-05-25T11:01:43.286Z,49.66
2018-05-25T11:02:43.546Z,49.07
2018-05-25T11:03:43.615Z,48
2018-05-25T11:04:43.562Z,48.97
2018-05-25T11:05:43.555Z,49.92
2018-05-25T11:06:43.303Z,50.5
2018-05-25T11:07:43.606Z,50.7
2018-05-25T11:08:43.585Z,49.92
2018-05-25T11:09:43.580Z,50.6
2018-05-25T11:10:43.596Z,50.41
2018-05-25T11:11:43.591Z,50.89
2018-05-25T11:12:43.605Z,49.46
2018-05-25T11:13:43.344Z,48.78
2018-05-25T11:14:43.347Z,48
2018-05-25T11:15:43.351Z,48.39
2018-05-25T11:16:43.617Z,47.16
2018-05-25T11:17:43.647Z,47.45
2018-05-25T11:18:43.632Z,47.16
2018-05-25T11:19:43.365Z,46.5
2018-05-25T11:20:43.369Z,45.72
2018-05-25T11:21:43.644Z,44.56
2018-05-25T11:22:43.638Z,43.71
2018-05-25T11:23:43.394Z,43.32
2018-05-25T11:24:43.667Z,43.9
2018-05-25T11:25:43.412Z,42.85
2018-05-25T11:26:43.671Z,43.24
2018-05-25T11:27:43.681Z,42.46
2018-05-25T11:28:43.682Z,44.02
2018-05-25T11:29:43.419Z,43.54
2018-05-25T11:30:43.423Z,42.85
2018-05-25T11:31:43.698Z,41.98
2018-05-25T11:32:43.698Z,41.9
2018-05-25T11:33:43.737Z,41.9
2018-05-25T11:34:43.710Z,42.49
2018-05-25T11:35:43.459Z,43.95
2018-05-25T11:36:43.715Z,45.01
2018-05-25T11:37:43.741Z,43.16
2018-05-25T11:38:43.778Z,43.54
2018-05-25T11:39:43.741Z,45.38
2018-05-25T11:40:43.767Z,44.97
2018-05-25T11:41:43.748Z,45.55
2018-05-25T11:42:43.514Z,44.87
2018-05-25T11:43:43.510Z,44.78
2018-05-25T11:44:43.764Z,44.75
2018-05-25T11:45:43.774Z,43.68
2018-05-25T11:46:43.534Z,43.68
2018-05-25T11:47:43.792Z,43.78
2018-05-25T11:48:43.809Z,44.64
2018-05-25T11:49:43.568Z,45.61
2018-05-25T11:50:43.547Z,46.07
2018-05-25T11:51:43.827Z,46.45
2018-05-25T11:52:43.807Z,48.78
2018-05-25T11:53:45.415Z,47.74
2018-05-25T11:54:43.583Z,46.5
2018-05-25T11:55:43.570Z,44.17
2018-05-25T11:56:43.579Z,44.19
2018-05-25T11:57:43.859Z,47.49
2018-05-25T11:58:43.838Z,46.62
2018-05-25T11:59:43.597Z,47.01
2018-05-25T12:00:43.617Z,47.38
2018-05-25T12:01:43.899Z,48.05
2018-05-25T12:02:43.868Z,48.52
2018-05-25T12:03:43.874Z,47.83
2018-05-25T12:04:43.878Z,47.66
2018-05-25T12:05:43.626Z,46.77
2018-05-25T12:06:43.971Z,46.41
2018-05-25T12:07:43.910Z,47.18
2018-05-25T12:08:43.641Z,46.86
2018-05-25T12:09:43.906Z,46.77
2018-05-25T12:10:43.911Z,48.03
2018-05-25T12:11:43.924Z,48.78
2018-05-25T12:12:43.924Z,49.87
2018-05-25T12:13:43.682Z,49.97
2018-05-25T12:14:43.933Z,46.77
2018-05-25T12:15:43.942Z,45.62
2018-05-25T12:16:43.693Z,44.85
2018-05-25T12:17:43.977Z,45.62
2018-05-25T12:18:43.953Z,45.89
2018-05-25T12:19:44.007Z,45.62
2018-05-25T12:20:43.702Z,45.82
2018-05-25T12:21:43.970Z,45.92
2018-05-25T12:22:43.973Z,45.24
2018-05-25T12:23:43.972Z,45.26
2018-05-25T12:24:43.989Z,45.72
2018-05-25T12:25:43.998Z,45.62
2018-05-25T12:26:43.746Z,46.11
2018-05-25T12:27:43.739Z,46.5
2018-05-25T12:28:44.004Z,46.11
2018-05-25T12:29:44.014Z,46.11
2018-05-25T12:30:44.018Z,47.16
2018-05-25T12:31:43.777Z,48.22
2018-05-25T12:32:43.780Z,49.19
2018-05-25T12:33:43.772Z,48.78
2018-05-25T12:34:44.035Z,48.8
2018-05-25T12:35:43.780Z,48.61
2018-05-25T12:36:44.043Z,47.35
2018-05-25T12:37:43.795Z,48.9
2018-05-25T12:38:44.065Z,48.03
2018-05-25T12:39:44.067Z,46.86
2018-05-25T12:40:44.071Z,48.61
2018-05-25T12:41:44.076Z,48.03
2018-05-25T12:42:44.082Z,47.83
2018-05-25T12:43:43.832Z,47.45
2018-05-25T12:44:44.093Z,46.28
2018-05-25T12:45:44.094Z,48.25
2018-05-25T12:46:44.103Z,48.25
2018-05-25T12:47:44.099Z,46.79
2018-05-25T12:48:43.846Z,45.24
2018-05-25T12:49:44.113Z,45.92
2018-05-25T12:50:44.126Z,45.84
2018-05-25T12:51:44.123Z,47.78
2018-05-25T12:52:44.132Z,46.14
2018-05-25T12:53:44.136Z,45.94
2018-05-25T12:54:44.147Z,45.84
2018-05-25T12:55:43.895Z,45.36
2018-05-25T12:56:44.250Z,44.97
2018-05-25T12:57:44.151Z,44.97
2018-05-25T12:58:43.900Z,45.34
2018-05-25T12:59:44.169Z,45.34
2018-05-25T13:00:44.172Z,44.65
2018-05-25T13:01:44.191Z,44.85
2018-05-25T13:02:43.927Z,44.95
2018-05-25T13:03:43.925Z,45.82
2018-05-25T13:04:44.198Z,46.11
2018-05-25T13:05:43.935Z,45.92
2018-05-25T13:06:44.214Z,45.82
2018-05-25T13:07:44.207Z,46.38
2018-05-25T13:08:43.960Z,46.86
2018-05-25T13:09:45.018Z,46.89
2018-05-25T13:10:43.965Z,47.25
2018-05-25T13:11:43.962Z,47.16
2018-05-25T13:12:44.229Z,48.42
2018-05-25T13:13:44.236Z,47.52
2018-05-25T13:14:44.250Z,48.39
2018-05-25T13:15:44.242Z,47.91
2018-05-25T13:16:43.994Z,47.06
2018-05-25T13:17:44.258Z,45.41
2018-05-25T13:18:44.013Z,45.02
2018-05-25T13:19:44.273Z,47.25
2018-05-25T13:20:44.009Z,47.64
2018-05-25T13:21:44.365Z,45.39
2018-05-25T13:22:44.293Z,45.58
2018-05-25T13:23:44.293Z,45.39
2018-05-25T13:24:44.316Z,45.58
2018-05-25T13:25:44.307Z,45.78
2018-05-25T13:26:44.064Z,45.99
2018-05-25T13:27:44.052Z,46.48
2018-05-25T13:28:44.313Z,45.99
2018-05-25T13:29:44.329Z,45.89
2018-05-25T13:30:44.069Z,45.51
2018-05-25T13:31:44.325Z,44.92
2018-05-25T13:32:44.331Z,45.7
2018-05-25T13:33:44.333Z,46.65
2018-05-25T13:34:44.340Z,46.55